Main page
METAR-TAF:

METAR-TAF

Airports :

Curaçao, Netherlands Antilles

Curaçao International Airport

latitude: 12-12N, longitude: 068-58W, elevation: 9 m

Current weather observation

The report was made 28 minutes ago, at 19:00 UTC
Wind 9 kt from the East, varying between East/Northeast and Southeast
Temperature 29°C
Humidity 70%
Pressure 1012 hPa
Visibility 10 km or more
Scattered clouds at a height of 2200 ft

METAR: TNCC 171900Z 10009KT 070V130 9999 SCT022 29/23 Q1012 NOSIG

Time: 15:28 (19:28 UTC)

Forecast

The report was made 3 hours and 28 minutes ago, at 16:00 UTC
Forecast valid from 17 at 18 UTC to 18 at 18 UTC
Wind 14 kt from the East
Visibility 10 km or more
Few clouds at a height of 2200 ft
Temporary
from 18 at 04 UTC to 18 at 10 UTC
Broken clouds at a height of 1400 ft

TAF: TNCC 171600Z 1718/1818 09014KT 9999 FEW022 TEMPO 1804/1810 BKN014

Weather observations and forecasts of more than 4000 airports (METAR and TAF reports).

The available stations are represented by yellow and red dots on the map.

Hover mouse over dot to see the name of the station.

Then click to see weather observations and forecasts.

To change the map : click on the green buttons with a black cross to zoom in, on the green button with a dash to zoom out, or on the green arrows for adjacent maps.


METAR-TAF: